createdAt,value
2018-09-10T00:01:11.877Z,99.90
2018-09-10T00:03:40.202Z,99.90
2018-09-10T00:06:08.522Z,99.90
2018-09-10T00:08:37.075Z,99.90
2018-09-10T00:11:06.067Z,99.90
2018-09-10T00:13:34.400Z,99.90
2018-09-10T00:16:02.769Z,99.90
2018-09-10T00:18:31.211Z,99.90
2018-09-10T00:20:59.518Z,99.90
2018-09-10T00:23:27.917Z,99.90
2018-09-10T00:25:56.296Z,99.90
2018-09-10T00:28:24.676Z,99.90
2018-09-10T00:30:53.099Z,99.90
2018-09-10T00:33:21.453Z,99.90
2018-09-10T00:35:50.195Z,99.90
2018-09-10T00:38:18.632Z,99.90
2018-09-10T00:40:46.961Z,99.90
2018-09-10T00:43:15.505Z,99.90
2018-09-10T00:45:43.919Z,99.90
2018-09-10T00:48:12.213Z,99.90
2018-09-10T00:50:40.551Z,99.90
2018-09-10T00:53:08.891Z,99.90
2018-09-10T00:55:37.327Z,99.90
2018-09-10T00:58:05.679Z,99.90
2018-09-10T01:00:34.105Z,99.90
2018-09-10T01:03:02.431Z,99.90
2018-09-10T01:05:30.817Z,99.90
2018-09-10T01:07:59.408Z,99.90
2018-09-10T01:10:28.221Z,99.90
2018-09-10T01:12:56.584Z,99.90
2018-09-10T01:15:24.877Z,99.90
2018-09-10T01:17:53.206Z,99.90
2018-09-10T01:20:21.540Z,99.90
2018-09-10T01:22:49.924Z,99.90
2018-09-10T01:25:25.018Z,99.90
2018-09-10T01:27:53.598Z,99.90
2018-09-10T01:30:21.912Z,99.90
2018-09-10T01:32:50.276Z,99.90
2018-09-10T01:35:18.643Z,99.90
2018-09-10T01:37:46.955Z,99.90
2018-09-10T01:40:15.357Z,99.90
2018-09-10T01:42:43.659Z,99.90
2018-09-10T01:45:12.000Z,99.90
2018-09-10T01:47:40.363Z,99.90
2018-09-10T01:50:08.708Z,99.90
2018-09-10T01:52:37.067Z,99.90
2018-09-10T01:55:05.422Z,99.90
2018-09-10T01:57:33.752Z,99.90
2018-09-10T02:00:02.075Z,99.90
2018-09-10T02:02:30.471Z,99.90
2018-09-10T02:04:58.831Z,99.90
2018-09-10T02:07:27.174Z,99.90
2018-09-10T02:09:55.474Z,99.90
2018-09-10T02:12:25.417Z,99.90
2018-09-10T02:14:55.355Z,99.90
2018-09-10T02:17:24.238Z,99.90
2018-09-10T02:19:52.599Z,99.90
2018-09-10T02:22:21.237Z,99.90
2018-09-10T02:24:49.585Z,99.90
2018-09-10T02:27:17.958Z,99.90
2018-09-10T02:29:46.366Z,99.90
2018-09-10T02:32:14.687Z,99.90
2018-09-10T02:34:43.071Z,99.90
2018-09-10T02:37:11.404Z,99.90
2018-09-10T02:39:39.740Z,99.90
2018-09-10T02:42:08.097Z,99.90
2018-09-10T02:44:36.471Z,99.90
2018-09-10T02:47:04.777Z,99.90
2018-09-10T02:49:33.049Z,99.90
2018-09-10T02:52:01.354Z,99.90
2018-09-10T02:54:29.658Z,99.90
2018-09-10T02:56:58.047Z,99.90
2018-09-10T02:59:26.413Z,99.90
2018-09-10T03:01:54.843Z,99.90
2018-09-10T03:04:23.222Z,99.90
2018-09-10T03:06:51.572Z,99.90
2018-09-10T03:09:19.968Z,99.90
2018-09-10T03:11:48.311Z,99.90
2018-09-10T03:14:16.654Z,99.90
2018-09-10T03:16:45.528Z,99.90
2018-09-10T03:19:13.870Z,99.90
2018-09-10T03:21:42.212Z,99.90
2018-09-10T03:24:10.617Z,99.90
2018-09-10T03:26:38.991Z,99.90
2018-09-10T03:29:07.714Z,99.90
2018-09-10T03:31:36.061Z,99.90
2018-09-10T03:34:04.406Z,99.90
2018-09-10T03:36:33.093Z,99.90
2018-09-10T03:39:01.393Z,99.90
2018-09-10T03:41:29.704Z,99.90
2018-09-10T03:43:58.079Z,99.90
2018-09-10T03:46:26.455Z,99.90
2018-09-10T03:48:54.810Z,99.90
2018-09-10T03:51:23.138Z,99.90
2018-09-10T03:53:51.488Z,99.90
2018-09-10T03:56:19.952Z,99.90
2018-09-10T03:58:48.343Z,99.90
2018-09-10T04:01:16.942Z,99.90
2018-09-10T04:03:45.254Z,99.90
2018-09-10T04:06:13.549Z,99.90
2018-09-10T04:08:42.095Z,99.90
2018-09-10T04:11:10.711Z,99.90
2018-09-10T04:13:39.113Z,99.90
2018-09-10T04:16:07.442Z,99.90
2018-09-10T04:18:35.820Z,99.90
2018-09-10T04:21:04.145Z,99.90
2018-09-10T04:23:32.937Z,99.90
2018-09-10T04:26:01.408Z,99.90
2018-09-10T04:28:29.695Z,99.90
2018-09-10T04:30:58.078Z,99.90
2018-09-10T04:33:26.815Z,99.90
2018-09-10T04:35:55.313Z,99.90
2018-09-10T04:38:23.687Z,99.90
2018-09-10T04:40:52.028Z,99.90
2018-09-10T04:43:20.353Z,99.90
2018-09-10T04:45:48.653Z,99.90
2018-09-10T04:48:17.015Z,99.90
2018-09-10T04:50:45.396Z,99.90
2018-09-10T04:53:13.738Z,99.90
2018-09-10T04:55:42.150Z,99.90
2018-09-10T04:58:10.595Z,99.90
2018-09-10T05:00:38.912Z,99.90
2018-09-10T05:03:07.324Z,99.90
2018-09-10T05:05:35.669Z,99.90
2018-09-10T05:08:04.034Z,99.90
2018-09-10T05:10:32.453Z,99.90
2018-09-10T05:13:00.782Z,99.90
2018-09-10T05:15:29.218Z,99.90
2018-09-10T05:17:57.583Z,99.90
2018-09-10T05:20:25.940Z,99.90
2018-09-10T05:22:55.278Z,99.90
2018-09-10T05:25:23.586Z,99.90
2018-09-10T05:27:51.973Z,99.90
2018-09-10T05:30:20.334Z,99.90
2018-09-10T05:32:48.707Z,99.90
2018-09-10T05:35:17.052Z,99.90
2018-09-10T05:37:45.436Z,99.90
2018-09-10T05:40:13.813Z,99.90
2018-09-10T05:42:42.266Z,99.90
2018-09-10T05:45:11.905Z,99.90
2018-09-10T05:47:40.761Z,99.90
2018-09-10T05:50:09.890Z,99.90
2018-09-10T05:52:38.179Z,99.90
2018-09-10T05:55:06.632Z,99.90
2018-09-10T05:57:34.960Z,99.90
2018-09-10T06:00:03.589Z,99.90
2018-09-10T06:02:31.962Z,99.90
2018-09-10T06:05:00.296Z,99.90
2018-09-10T06:07:28.759Z,99.90
2018-09-10T06:09:57.226Z,99.90
2018-09-10T06:12:25.593Z,99.90
2018-09-10T06:14:53.947Z,99.90
2018-09-10T06:17:22.351Z,99.90
2018-09-10T06:19:50.702Z,99.90
2018-09-10T06:22:19.028Z,99.90
2018-09-10T06:24:47.366Z,99.90
2018-09-10T06:27:15.699Z,99.90
2018-09-10T06:29:44.133Z,99.90
2018-09-10T06:32:12.831Z,99.90
2018-09-10T06:34:41.346Z,99.90
2018-09-10T06:37:09.751Z,99.90
2018-09-10T06:39:38.169Z,99.90
2018-09-10T06:42:06.538Z,99.90
2018-09-10T06:44:35.027Z,99.90
2018-09-10T06:47:03.351Z,99.90
2018-09-10T06:49:32.067Z,99.90
2018-09-10T06:52:00.457Z,99.90
2018-09-10T06:54:29.454Z,99.90
2018-09-10T06:56:58.789Z,99.90
2018-09-10T06:59:27.244Z,99.80
2018-09-10T07:01:55.576Z,99.60
2018-09-10T07:04:24.003Z,99.30
2018-09-10T07:06:52.644Z,98.80
2018-09-10T07:09:21.092Z,98.50
2018-09-10T07:11:49.442Z,98.40
2018-09-10T07:14:17.913Z,98.10
2018-09-10T07:16:46.242Z,98.00
2018-09-10T07:19:14.740Z,97.90
2018-09-10T07:21:43.235Z,97.90
2018-09-10T07:24:11.685Z,97.70
2018-09-10T07:26:40.068Z,97.50
2018-09-10T07:29:08.440Z,97.20
2018-09-10T07:31:36.798Z,96.60
2018-09-10T07:34:05.410Z,96.00
2018-09-10T07:39:01.864Z,95.30
2018-09-10T07:41:30.203Z,93.60
2018-09-10T07:43:58.642Z,93.00
2018-09-10T07:46:26.960Z,92.80
2018-09-10T07:48:55.365Z,92.80
2018-09-10T07:51:23.691Z,92.50
2018-09-10T07:53:52.115Z,92.40
2018-09-10T07:56:20.449Z,92.70
2018-09-10T07:58:48.892Z,92.80
2018-09-10T08:01:17.361Z,92.70
2018-09-10T08:03:45.744Z,92.80
2018-09-10T08:06:14.678Z,92.40
2018-09-10T08:08:43.072Z,91.70
2018-09-10T08:58:07.126Z,90.60
2018-09-10T09:00:35.528Z,68.30
2018-09-10T09:03:03.944Z,67.60
2018-09-10T09:05:32.315Z,66.00
2018-09-10T09:08:01.564Z,65.70
2018-09-10T09:10:29.940Z,64.90
2018-09-10T09:12:58.320Z,64.60
2018-09-10T09:15:26.936Z,64.50
2018-09-10T09:17:55.373Z,63.90
2018-09-10T09:20:23.868Z,62.80
2018-09-10T09:22:52.208Z,63.50
2018-09-10T09:25:20.579Z,63.80
2018-09-10T09:27:48.956Z,63.00
2018-09-10T09:30:17.428Z,62.80
2018-09-10T09:32:45.796Z,62.10
2018-09-10T09:35:14.151Z,62.30
2018-09-10T09:37:47.854Z,62.50
2018-09-10T09:40:21.666Z,63.00
2018-09-10T09:42:55.498Z,62.40
2018-09-10T09:45:30.949Z,62.50
2018-09-10T09:47:59.262Z,62.60
2018-09-10T09:50:28.228Z,62.30
2018-09-10T09:52:56.605Z,61.60
2018-09-10T09:55:25.051Z,61.40
2018-09-10T09:57:53.447Z,61.00
2018-09-10T10:00:27.185Z,61.30
2018-09-10T10:03:01.684Z,60.60
2018-09-10T10:05:30.030Z,60.50
2018-09-10T10:07:58.436Z,60.40
2018-09-10T10:10:26.794Z,59.70
2018-09-10T10:12:55.115Z,59.00
2018-09-10T10:15:23.521Z,59.00
2018-09-10T10:17:51.854Z,58.50
2018-09-10T10:20:20.200Z,58.50
2018-09-10T10:22:48.596Z,58.00
2018-09-10T10:25:17.053Z,58.60
2018-09-10T10:27:45.379Z,58.00
2018-09-10T10:30:13.764Z,57.50
2018-09-10T10:32:42.116Z,57.20
2018-09-10T10:35:10.558Z,56.90
2018-09-10T10:37:39.294Z,56.60
2018-09-10T10:40:07.734Z,55.60
2018-09-10T10:42:36.335Z,55.10
2018-09-10T10:45:05.575Z,54.60
2018-09-10T10:47:34.217Z,55.00
2018-09-10T10:50:02.788Z,54.40
2018-09-10T10:52:31.159Z,53.60
2018-09-10T10:54:59.707Z,52.20
2018-09-10T10:57:28.193Z,52.60
2018-09-10T10:59:56.593Z,52.40
2018-09-10T11:02:24.993Z,52.40
2018-09-10T11:04:53.863Z,52.50
2018-09-10T11:09:53.983Z,51.70
2018-09-10T11:12:22.432Z,50.90
2018-09-10T11:14:50.807Z,50.60
2018-09-10T11:17:19.377Z,49.40
2018-09-10T11:19:47.804Z,49.00
2018-09-10T11:22:16.691Z,49.70
2018-09-10T11:24:45.136Z,50.00
2018-09-10T11:27:13.497Z,49.90
2018-09-10T11:29:42.438Z,49.20
2018-09-10T11:32:10.852Z,49.70
2018-09-10T11:34:39.297Z,49.30
2018-09-10T11:37:07.640Z,49.20
2018-09-10T11:39:36.058Z,49.10
2018-09-10T11:42:04.755Z,48.80
2018-09-10T11:44:34.126Z,48.50
2018-09-10T11:47:02.790Z,47.90
2018-09-10T11:49:31.155Z,47.80
2018-09-10T11:51:59.495Z,47.80
2018-09-10T11:54:29.053Z,47.80
2018-09-10T11:56:57.421Z,47.60
2018-09-10T11:59:27.289Z,47.70
2018-09-10T12:01:56.462Z,47.20
2018-09-10T12:04:24.894Z,47.30
2018-09-10T12:06:53.498Z,46.60
2018-09-10T12:09:21.820Z,46.30
2018-09-10T12:11:50.181Z,45.80
2018-09-10T12:14:18.551Z,46.20
2018-09-10T12:16:46.964Z,46.40
2018-09-10T12:19:15.242Z,45.90
2018-09-10T12:21:43.585Z,45.60
2018-09-10T12:24:11.924Z,45.70
2018-09-10T12:26:40.359Z,45.70
2018-09-10T12:29:08.752Z,45.50
2018-09-10T12:31:37.135Z,45.40
2018-09-10T12:34:05.547Z,45.40
2018-09-10T12:36:33.846Z,45.70
2018-09-10T12:39:02.223Z,44.60
2018-09-10T12:41:30.580Z,44.80
2018-09-10T12:43:58.866Z,45.00
2018-09-10T12:46:27.499Z,44.30
2018-09-10T12:48:55.838Z,44.40
2018-09-10T12:51:24.197Z,44.20
2018-09-10T12:53:52.491Z,44.40
2018-09-10T12:56:20.801Z,44.00
2018-09-10T12:58:49.167Z,43.60
2018-09-10T13:01:17.495Z,42.60
2018-09-10T13:03:45.989Z,43.80
2018-09-10T13:06:14.952Z,43.50
2018-09-10T13:08:43.552Z,43.40
2018-09-10T13:11:11.947Z,43.50
2018-09-10T13:13:40.252Z,43.20
2018-09-10T13:16:08.869Z,43.50
2018-09-10T13:18:37.215Z,43.10
2018-09-10T13:21:05.633Z,43.50
2018-09-10T13:23:33.959Z,42.90
2018-09-10T13:26:02.257Z,42.70
2018-09-10T13:28:30.575Z,42.50
2018-09-10T13:30:58.878Z,42.60
2018-09-10T13:33:27.207Z,43.00
2018-09-10T13:35:55.552Z,42.80
2018-09-10T13:38:25.557Z,43.20
2018-09-10T13:40:54.796Z,43.60
2018-09-10T13:43:23.129Z,43.20
2018-09-10T13:45:51.710Z,43.40
2018-09-10T13:48:20.010Z,43.60
2018-09-10T13:50:48.335Z,43.80
2018-09-10T13:53:16.642Z,44.10
2018-09-10T13:55:44.943Z,44.20
2018-09-10T13:58:14.006Z,44.30
2018-09-10T14:00:42.310Z,44.30
2018-09-10T14:03:11.135Z,44.30
2018-09-10T14:05:42.777Z,44.40
2018-09-10T14:08:11.199Z,44.40
2018-09-10T14:10:39.537Z,44.50
2018-09-10T14:13:07.952Z,44.30
2018-09-10T14:15:36.431Z,44.30
2018-09-10T14:18:04.864Z,43.80
2018-09-10T14:20:33.150Z,43.60
2018-09-10T14:23:01.717Z,43.60
2018-09-10T14:25:30.146Z,43.30
2018-09-10T14:27:58.491Z,43.80
2018-09-10T14:30:26.855Z,43.90
2018-09-10T14:32:55.198Z,44.30
2018-09-10T14:35:23.602Z,44.60
2018-09-10T14:37:52.110Z,45.40
2018-09-10T14:40:21.554Z,45.30
2018-09-10T14:42:50.252Z,45.20
2018-09-10T14:45:18.579Z,45.30
2018-09-10T14:47:46.974Z,45.60
2018-09-10T14:50:16.913Z,45.30
2018-09-10T14:52:45.261Z,45.50
2018-09-10T14:55:13.604Z,45.40
2018-09-10T14:57:42.137Z,45.50
2018-09-10T15:00:14.699Z,46.10
2018-09-10T15:02:43.042Z,45.60
2018-09-10T15:05:11.799Z,45.70
2018-09-10T15:07:40.330Z,45.80
2018-09-10T15:10:08.607Z,45.90
2018-09-10T15:12:36.909Z,45.70
2018-09-10T15:15:05.248Z,46.00
2018-09-10T15:17:33.523Z,46.10
2018-09-10T15:20:02.134Z,46.50
2018-09-10T15:22:30.445Z,46.60
2018-09-10T15:24:58.797Z,46.70
